sensor_id;sensor_type;location;lat;lon;timestamp;P1;durP1;ratioP1;P2;durP2;ratioP2
69714;SDS011;56981;53.532;49.398;2022-12-15T00:00:12;3.85;;;1.20;;
69714;SDS011;56981;53.532;49.398;2022-12-15T00:03:01;3.42;;;1.10;;
69714;SDS011;56981;53.532;49.398;2022-12-15T00:05:47;2.85;;;1.02;;
69714;SDS011;56981;53.532;49.398;2022-12-15T00:08:31;4.70;;;1.27;;
69714;SDS011;56981;53.532;49.398;2022-12-15T00:11:16;1.80;;;1.13;;
69714;SDS011;56981;53.532;49.398;2022-12-15T00:14:00;6.70;;;1.45;;
69714;SDS011;56981;53.532;49.398;2022-12-15T00:16:45;3.53;;;1.20;;
69714;SDS011;56981;53.532;49.398;2022-12-15T00:19:29;3.10;;;1.10;;
69714;SDS011;56981;53.532;49.398;2022-12-15T00:22:17;4.47;;;1.58;;
69714;SDS011;56981;53.532;49.398;2022-12-15T00:25:02;2.72;;;1.30;;
69714;SDS011;56981;53.532;49.398;2022-12-15T00:27:46;3.45;;;1.42;;
69714;SDS011;56981;53.532;49.398;2022-12-15T00:30:31;4.30;;;1.60;;
69714;SDS011;56981;53.532;49.398;2022-12-15T00:33:19;4.68;;;0.80;;
69714;SDS011;56981;53.532;49.398;2022-12-15T00:36:03;1.35;;;0.85;;
69714;SDS011;56981;53.532;49.398;2022-12-15T00:38:48;1.92;;;0.80;;
69714;SDS011;56981;53.532;49.398;2022-12-15T00:41:15;3.67;;;1.45;;
69714;SDS011;56981;53.532;49.398;2022-12-15T00:43:45;2.55;;;1.40;;
69714;SDS011;56981;53.532;49.398;2022-12-15T00:46:12;3.13;;;1.33;;
69714;SDS011;56981;53.532;49.398;2022-12-15T00:48:56;1.90;;;1.38;;
69714;SDS011;56981;53.532;49.398;2022-12-15T00:51:23;3.00;;;1.33;;
69714;SDS011;56981;53.532;49.398;2022-12-15T00:54:08;1.27;;;1.15;;
69714;SDS011;56981;53.532;49.398;2022-12-15T00:56:53;2.42;;;1.58;;
69714;SDS011;56981;53.532;49.398;2022-12-15T00:59:37;3.80;;;1.50;;
69714;SDS011;56981;53.532;49.398;2022-12-15T01:02:21;6.97;;;2.80;;
69714;SDS011;56981;53.532;49.398;2022-12-15T01:05:06;3.20;;;1.35;;
69714;SDS011;56981;53.532;49.398;2022-12-15T01:07:50;4.22;;;1.45;;
69714;SDS011;56981;53.532;49.398;2022-12-15T01:10:35;3.10;;;1.38;;
69714;SDS011;56981;53.532;49.398;2022-12-15T01:13:19;5.32;;;1.38;;
69714;SDS011;56981;53.532;49.398;2022-12-15T01:16:08;4.40;;;2.08;;
69714;SDS011;56981;53.532;49.398;2022-12-15T01:18:54;2.83;;;1.20;;
69714;SDS011;56981;53.532;49.398;2022-12-15T01:21:38;2.63;;;1.60;;
69714;SDS011;56981;53.532;49.398;2022-12-15T01:24:04;3.70;;;2.10;;
69714;SDS011;56981;53.532;49.398;2022-12-15T01:26:30;3.28;;;1.55;;
69714;SDS011;56981;53.532;49.398;2022-12-15T01:28:56;1.65;;;1.15;;
69714;SDS011;56981;53.532;49.398;2022-12-15T01:31:22;4.68;;;1.77;;
69714;SDS011;56981;53.532;49.398;2022-12-15T01:33:51;4.65;;;1.50;;
69714;SDS011;56981;53.532;49.398;2022-12-15T01:36:19;4.20;;;1.73;;
69714;SDS011;56981;53.532;49.398;2022-12-15T01:38:45;4.65;;;1.80;;
69714;SDS011;56981;53.532;49.398;2022-12-15T01:41:11;4.57;;;1.80;;
69714;SDS011;56981;53.532;49.398;2022-12-15T01:43:38;4.40;;;1.70;;
69714;SDS011;56981;53.532;49.398;2022-12-15T01:46:15;3.65;;;1.52;;
69714;SDS011;56981;53.532;49.398;2022-12-15T01:49:01;2.55;;;1.40;;
69714;SDS011;56981;53.532;49.398;2022-12-15T01:51:40;3.47;;;2.50;;
69714;SDS011;56981;53.532;49.398;2022-12-15T01:54:12;3.83;;;1.73;;
69714;SDS011;56981;53.532;49.398;2022-12-15T01:56:47;6.05;;;2.47;;
69714;SDS011;56981;53.532;49.398;2022-12-15T01:59:18;4.22;;;2.08;;
69714;SDS011;56981;53.532;49.398;2022-12-15T02:02:00;3.45;;;1.33;;
69714;SDS011;56981;53.532;49.398;2022-12-15T02:04:28;3.55;;;1.27;;
69714;SDS011;56981;53.532;49.398;2022-12-15T02:06:55;2.95;;;1.38;;
69714;SDS011;56981;53.532;49.398;2022-12-15T02:09:21;3.90;;;1.70;;
69714;SDS011;56981;53.532;49.398;2022-12-15T02:11:54;2.70;;;1.52;;
69714;SDS011;56981;53.532;49.398;2022-12-15T02:14:29;5.07;;;1.80;;
69714;SDS011;56981;53.532;49.398;2022-12-15T02:17:19;3.25;;;1.42;;
69714;SDS011;56981;53.532;49.398;2022-12-15T02:22:45;2.58;;;1.83;;
69714;SDS011;56981;53.532;49.398;2022-12-15T02:28:03;4.80;;;1.58;;
69714;SDS011;56981;53.532;49.398;2022-12-15T02:30:58;4.05;;;1.67;;
69714;SDS011;56981;53.532;49.398;2022-12-15T02:34:09;3.00;;;1.30;;
69714;SDS011;56981;53.532;49.398;2022-12-15T02:36:42;7.68;;;1.88;;
69714;SDS011;56981;53.532;49.398;2022-12-15T02:39:13;3.88;;;1.40;;
69714;SDS011;56981;53.532;49.398;2022-12-15T02:41:43;3.55;;;1.80;;
69714;SDS011;56981;53.532;49.398;2022-12-15T02:44:23;7.15;;;2.83;;
69714;SDS011;56981;53.532;49.398;2022-12-15T03:03:55;4.60;;;1.90;;
69714;SDS011;56981;53.532;49.398;2022-12-15T03:06:25;5.05;;;1.70;;
69714;SDS011;56981;53.532;49.398;2022-12-15T03:08:52;5.05;;;1.75;;
69714;SDS011;56981;53.532;49.398;2022-12-15T03:11:18;6.30;;;2.83;;
69714;SDS011;56981;53.532;49.398;2022-12-15T03:13:44;4.32;;;2.08;;
69714;SDS011;56981;53.532;49.398;2022-12-15T03:16:11;2.83;;;1.27;;
69714;SDS011;56981;53.532;49.398;2022-12-15T03:18:37;4.32;;;2.08;;
69714;SDS011;56981;53.532;49.398;2022-12-15T03:21:03;6.85;;;2.42;;
69714;SDS011;56981;53.532;49.398;2022-12-15T03:23:29;5.57;;;1.98;;
69714;SDS011;56981;53.532;49.398;2022-12-15T03:25:55;4.57;;;1.85;;
69714;SDS011;56981;53.532;49.398;2022-12-15T03:28:21;5.80;;;2.17;;
69714;SDS011;56981;53.532;49.398;2022-12-15T03:30:48;8.07;;;2.22;;
69714;SDS011;56981;53.532;49.398;2022-12-15T03:33:17;3.83;;;1.90;;
69714;SDS011;56981;53.532;49.398;2022-12-15T03:35:43;6.63;;;2.10;;
69714;SDS011;56981;53.532;49.398;2022-12-15T03:38:09;6.50;;;2.67;;
69714;SDS011;56981;53.532;49.398;2022-12-15T03:40:35;6.22;;;2.17;;
69714;SDS011;56981;53.532;49.398;2022-12-15T03:43:01;4.93;;;2.10;;
69714;SDS011;56981;53.532;49.398;2022-12-15T03:45:27;7.10;;;2.92;;
69714;SDS011;56981;53.532;49.398;2022-12-15T03:47:54;5.93;;;2.63;;
69714;SDS011;56981;53.532;49.398;2022-12-15T03:50:22;4.97;;;1.95;;
69714;SDS011;56981;53.532;49.398;2022-12-15T03:52:50;7.10;;;2.60;;
69714;SDS011;56981;53.532;49.398;2022-12-15T03:55:18;6.57;;;2.58;;
69714;SDS011;56981;53.532;49.398;2022-12-15T03:57:45;6.50;;;2.50;;
69714;SDS011;56981;53.532;49.398;2022-12-15T04:00:12;8.05;;;2.75;;
69714;SDS011;56981;53.532;49.398;2022-12-15T04:02:43;4.45;;;2.05;;
69714;SDS011;56981;53.532;49.398;2022-12-15T04:05:29;2.88;;;1.33;;
69714;SDS011;56981;53.532;49.398;2022-12-15T04:07:57;4.70;;;1.52;;
69714;SDS011;56981;53.532;49.398;2022-12-15T04:10:25;4.55;;;1.90;;
69714;SDS011;56981;53.532;49.398;2022-12-15T04:13:11;2.15;;;1.25;;
69714;SDS011;56981;53.532;49.398;2022-12-15T04:15:38;6.35;;;2.28;;
69714;SDS011;56981;53.532;49.398;2022-12-15T04:18:06;3.97;;;2.08;;
69714;SDS011;56981;53.532;49.398;2022-12-15T04:20:34;5.32;;;2.70;;
69714;SDS011;56981;53.532;49.398;2022-12-15T04:23:00;4.25;;;2.13;;
69714;SDS011;56981;53.532;49.398;2022-12-15T04:25:26;5.38;;;2.60;;
69714;SDS011;56981;53.532;49.398;2022-12-15T04:28:11;4.35;;;2.50;;
69714;SDS011;56981;53.532;49.398;2022-12-15T04:31:09;6.70;;;2.53;;
69714;SDS011;56981;53.532;49.398;2022-12-15T04:33:56;5.60;;;2.30;;
69714;SDS011;56981;53.532;49.398;2022-12-15T04:36:44;5.60;;;2.75;;
69714;SDS011;56981;53.532;49.398;2022-12-15T04:39:33;9.38;;;2.70;;
69714;SDS011;56981;53.532;49.398;2022-12-15T04:42:19;10.02;;;2.55;;
69714;SDS011;56981;53.532;49.398;2022-12-15T04:45:03;5.22;;;2.42;;
69714;SDS011;56981;53.532;49.398;2022-12-15T04:47:49;8.55;;;3.50;;
69714;SDS011;56981;53.532;49.398;2022-12-15T04:50:34;7.13;;;2.90;;
69714;SDS011;56981;53.532;49.398;2022-12-15T04:53:19;8.55;;;3.08;;
69714;SDS011;56981;53.532;49.398;2022-12-15T04:56:07;6.53;;;2.75;;
69714;SDS011;56981;53.532;49.398;2022-12-15T04:58:53;11.73;;;3.28;;
69714;SDS011;56981;53.532;49.398;2022-12-15T05:01:37;14.57;;;5.30;;
69714;SDS011;56981;53.532;49.398;2022-12-15T05:04:22;10.02;;;3.28;;
69714;SDS011;56981;53.532;49.398;2022-12-15T05:07:06;16.90;;;5.25;;
69714;SDS011;56981;53.532;49.398;2022-12-15T05:09:50;12.68;;;4.68;;
69714;SDS011;56981;53.532;49.398;2022-12-15T05:12:35;29.25;;;11.38;;
69714;SDS011;56981;53.532;49.398;2022-12-15T05:15:19;18.38;;;7.18;;
69714;SDS011;56981;53.532;49.398;2022-12-15T05:18:03;7.47;;;3.30;;
69714;SDS011;56981;53.532;49.398;2022-12-15T05:20:48;8.10;;;3.25;;
69714;SDS011;56981;53.532;49.398;2022-12-15T05:23:32;5.43;;;2.92;;
69714;SDS011;56981;53.532;49.398;2022-12-15T05:26:16;6.57;;;2.80;;
69714;SDS011;56981;53.532;49.398;2022-12-15T05:29:01;8.48;;;3.13;;
69714;SDS011;56981;53.532;49.398;2022-12-15T05:31:45;6.90;;;2.78;;
69714;SDS011;56981;53.532;49.398;2022-12-15T05:34:18;6.10;;;2.58;;
69714;SDS011;56981;53.532;49.398;2022-12-15T05:36:46;8.30;;;2.75;;
69714;SDS011;56981;53.532;49.398;2022-12-15T05:39:15;6.45;;;2.92;;
69714;SDS011;56981;53.532;49.398;2022-12-15T05:41:42;6.97;;;2.63;;
69714;SDS011;56981;53.532;49.398;2022-12-15T05:44:12;5.65;;;2.50;;
69714;SDS011;56981;53.532;49.398;2022-12-15T05:46:38;5.53;;;2.67;;
69714;SDS011;56981;53.532;49.398;2022-12-15T05:49:05;4.88;;;1.83;;
69714;SDS011;56981;53.532;49.398;2022-12-15T05:51:32;8.45;;;2.63;;
69714;SDS011;56981;53.532;49.398;2022-12-15T05:54:01;7.38;;;2.55;;
69714;SDS011;56981;53.532;49.398;2022-12-15T05:56:27;4.40;;;2.17;;
69714;SDS011;56981;53.532;49.398;2022-12-15T05:58:54;8.57;;;3.05;;
69714;SDS011;56981;53.532;49.398;2022-12-15T06:01:28;9.18;;;3.10;;
69714;SDS011;56981;53.532;49.398;2022-12-15T06:04:12;5.88;;;2.40;;
69714;SDS011;56981;53.532;49.398;2022-12-15T06:06:38;6.13;;;2.90;;
69714;SDS011;56981;53.532;49.398;2022-12-15T06:09:05;5.68;;;2.25;;
69714;SDS011;56981;53.532;49.398;2022-12-15T06:11:32;9.73;;;3.33;;
69714;SDS011;56981;53.532;49.398;2022-12-15T06:13:58;4.97;;;2.60;;
69714;SDS011;56981;53.532;49.398;2022-12-15T06:16:24;6.38;;;3.17;;
69714;SDS011;56981;53.532;49.398;2022-12-15T06:18:53;6.00;;;2.50;;
69714;SDS011;56981;53.532;49.398;2022-12-15T06:21:22;6.85;;;2.80;;
69714;SDS011;56981;53.532;49.398;2022-12-15T06:23:50;11.85;;;4.03;;
69714;SDS011;56981;53.532;49.398;2022-12-15T06:26:21;8.43;;;3.50;;
69714;SDS011;56981;53.532;49.398;2022-12-15T06:28:53;5.43;;;2.28;;
69714;SDS011;56981;53.532;49.398;2022-12-15T06:31:20;6.18;;;2.78;;
69714;SDS011;56981;53.532;49.398;2022-12-15T06:33:50;7.53;;;2.42;;
69714;SDS011;56981;53.532;49.398;2022-12-15T06:36:17;6.50;;;3.17;;
69714;SDS011;56981;53.532;49.398;2022-12-15T06:38:48;5.78;;;2.55;;
69714;SDS011;56981;53.532;49.398;2022-12-15T06:41:16;9.05;;;3.20;;
69714;SDS011;56981;53.532;49.398;2022-12-15T06:43:49;12.82;;;5.15;;
69714;SDS011;56981;53.532;49.398;2022-12-15T06:46:22;13.93;;;4.88;;
69714;SDS011;56981;53.532;49.398;2022-12-15T06:48:49;15.63;;;5.47;;
69714;SDS011;56981;53.532;49.398;2022-12-15T06:51:16;15.98;;;5.15;;
69714;SDS011;56981;53.532;49.398;2022-12-15T06:53:42;10.52;;;4.50;;
69714;SDS011;56981;53.532;49.398;2022-12-15T06:58:51;14.45;;;4.93;;
69714;SDS011;56981;53.532;49.398;2022-12-15T07:01:20;21.52;;;6.13;;
69714;SDS011;56981;53.532;49.398;2022-12-15T07:03:47;14.68;;;3.92;;
69714;SDS011;56981;53.532;49.398;2022-12-15T07:06:14;11.57;;;3.95;;
69714;SDS011;56981;53.532;49.398;2022-12-15T07:08:42;7.03;;;2.85;;
69714;SDS011;56981;53.532;49.398;2022-12-15T07:11:10;6.55;;;2.90;;
69714;SDS011;56981;53.532;49.398;2022-12-15T07:13:37;6.68;;;2.58;;
69714;SDS011;56981;53.532;49.398;2022-12-15T07:16:05;10.13;;;3.63;;
69714;SDS011;56981;53.532;49.398;2022-12-15T07:18:32;12.35;;;4.93;;
69714;SDS011;56981;53.532;49.398;2022-12-15T07:21:02;11.80;;;4.40;;
69714;SDS011;56981;53.532;49.398;2022-12-15T07:23:30;12.50;;;3.67;;
69714;SDS011;56981;53.532;49.398;2022-12-15T07:25:56;11.35;;;4.05;;
69714;SDS011;56981;53.532;49.398;2022-12-15T07:28:22;15.07;;;5.70;;
69714;SDS011;56981;53.532;49.398;2022-12-15T07:30:48;8.98;;;3.33;;
69714;SDS011;56981;53.532;49.398;2022-12-15T07:33:14;10.88;;;4.40;;
69714;SDS011;56981;53.532;49.398;2022-12-15T07:35:40;10.82;;;4.47;;
69714;SDS011;56981;53.532;49.398;2022-12-15T07:38:07;10.50;;;3.88;;
69714;SDS011;56981;53.532;49.398;2022-12-15T07:40:33;7.68;;;3.30;;
69714;SDS011;56981;53.532;49.398;2022-12-15T07:42:59;7.40;;;2.97;;
69714;SDS011;56981;53.532;49.398;2022-12-15T07:45:25;8.02;;;3.63;;
69714;SDS011;56981;53.532;49.398;2022-12-15T07:47:51;9.57;;;3.83;;
69714;SDS011;56981;53.532;49.398;2022-12-15T07:50:18;8.30;;;3.65;;
69714;SDS011;56981;53.532;49.398;2022-12-15T07:52:44;9.73;;;3.70;;
69714;SDS011;56981;53.532;49.398;2022-12-15T07:55:11;8.63;;;3.97;;
69714;SDS011;56981;53.532;49.398;2022-12-15T07:57:37;9.70;;;3.33;;
69714;SDS011;56981;53.532;49.398;2022-12-15T08:00:04;11.95;;;4.55;;
69714;SDS011;56981;53.532;49.398;2022-12-15T08:02:30;11.18;;;3.63;;
69714;SDS011;56981;53.532;49.398;2022-12-15T08:04:56;6.90;;;3.03;;
69714;SDS011;56981;53.532;49.398;2022-12-15T08:07:22;6.47;;;2.90;;
69714;SDS011;56981;53.532;49.398;2022-12-15T08:09:48;9.98;;;3.72;;
69714;SDS011;56981;53.532;49.398;2022-12-15T08:12:14;6.82;;;3.45;;
69714;SDS011;56981;53.532;49.398;2022-12-15T08:14:41;8.95;;;3.88;;
69714;SDS011;56981;53.532;49.398;2022-12-15T08:17:07;7.97;;;2.78;;
69714;SDS011;56981;53.532;49.398;2022-12-15T08:19:33;4.15;;;2.30;;
69714;SDS011;56981;53.532;49.398;2022-12-15T08:21:59;7.65;;;3.30;;
69714;SDS011;56981;53.532;49.398;2022-12-15T08:24:25;10.50;;;4.03;;
69714;SDS011;56981;53.532;49.398;2022-12-15T08:26:51;10.32;;;3.60;;
69714;SDS011;56981;53.532;49.398;2022-12-15T08:29:17;7.40;;;3.13;;
69714;SDS011;56981;53.532;49.398;2022-12-15T08:31:44;7.28;;;3.42;;
69714;SDS011;56981;53.532;49.398;2022-12-15T08:34:10;9.75;;;3.50;;
69714;SDS011;56981;53.532;49.398;2022-12-15T08:36:37;10.20;;;3.35;;
69714;SDS011;56981;53.532;49.398;2022-12-15T08:39:03;12.70;;;4.07;;
69714;SDS011;56981;53.532;49.398;2022-12-15T08:41:30;9.32;;;3.65;;
69714;SDS011;56981;53.532;49.398;2022-12-15T08:43:58;9.50;;;3.92;;
69714;SDS011;56981;53.532;49.398;2022-12-15T08:46:27;7.63;;;3.47;;
69714;SDS011;56981;53.532;49.398;2022-12-15T08:48:55;10.70;;;3.72;;
69714;SDS011;56981;53.532;49.398;2022-12-15T08:51:22;7.38;;;2.85;;
69714;SDS011;56981;53.532;49.398;2022-12-15T08:53:51;7.47;;;2.83;;
69714;SDS011;56981;53.532;49.398;2022-12-15T08:56:19;10.50;;;4.05;;
69714;SDS011;56981;53.532;49.398;2022-12-15T08:58:46;10.77;;;4.20;;
69714;SDS011;56981;53.532;49.398;2022-12-15T09:01:14;8.18;;;4.20;;
69714;SDS011;56981;53.532;49.398;2022-12-15T09:03:43;7.07;;;3.10;;
69714;SDS011;56981;53.532;49.398;2022-12-15T09:06:14;9.43;;;4.28;;
69714;SDS011;56981;53.532;49.398;2022-12-15T09:08:54;9.75;;;3.55;;
69714;SDS011;56981;53.532;49.398;2022-12-15T09:11:22;6.68;;;3.65;;
69714;SDS011;56981;53.532;49.398;2022-12-15T09:13:50;10.38;;;3.42;;
69714;SDS011;56981;53.532;49.398;2022-12-15T09:16:16;11.25;;;4.72;;
69714;SDS011;56981;53.532;49.398;2022-12-15T09:18:50;12.18;;;4.60;;
69714;SDS011;56981;53.532;49.398;2022-12-15T09:21:22;13.93;;;4.93;;
69714;SDS011;56981;53.532;49.398;2022-12-15T09:23:50;13.15;;;4.82;;
69714;SDS011;56981;53.532;49.398;2022-12-15T09:26:19;8.60;;;3.22;;
69714;SDS011;56981;53.532;49.398;2022-12-15T09:28:47;9.23;;;4.20;;
69714;SDS011;56981;53.532;49.398;2022-12-15T09:31:14;8.93;;;3.25;;
69714;SDS011;56981;53.532;49.398;2022-12-15T09:33:45;8.18;;;4.00;;
69714;SDS011;56981;53.532;49.398;2022-12-15T09:36:11;11.02;;;4.28;;
69714;SDS011;56981;53.532;49.398;2022-12-15T09:38:40;7.78;;;4.07;;
69714;SDS011;56981;53.532;49.398;2022-12-15T09:43:56;9.82;;;3.88;;
69714;SDS011;56981;53.532;49.398;2022-12-15T09:55:17;7.68;;;3.03;;
69714;SDS011;56981;53.532;49.398;2022-12-15T10:00:53;8.52;;;3.22;;
69714;SDS011;56981;53.532;49.398;2022-12-15T10:08:32;10.52;;;4.57;;
69714;SDS011;56981;53.532;49.398;2022-12-15T10:11:03;7.88;;;3.83;;
69714;SDS011;56981;53.532;49.398;2022-12-15T10:13:59;12.32;;;4.93;;
69714;SDS011;56981;53.532;49.398;2022-12-15T10:19:20;14.23;;;4.28;;
69714;SDS011;56981;53.532;49.398;2022-12-15T10:21:48;8.43;;;4.60;;
69714;SDS011;56981;53.532;49.398;2022-12-15T10:24:16;10.38;;;3.67;;
69714;SDS011;56981;53.532;49.398;2022-12-15T10:26:47;11.75;;;4.85;;
69714;SDS011;56981;53.532;49.398;2022-12-15T10:32:22;9.88;;;3.67;;
69714;SDS011;56981;53.532;49.398;2022-12-15T10:35:15;7.43;;;3.55;;
69714;SDS011;56981;53.532;49.398;2022-12-15T10:37:53;7.00;;;3.10;;
69714;SDS011;56981;53.532;49.398;2022-12-15T10:43:11;9.20;;;3.92;;
69714;SDS011;56981;53.532;49.398;2022-12-15T10:45:47;12.13;;;4.90;;
69714;SDS011;56981;53.532;49.398;2022-12-15T10:48:21;12.93;;;5.70;;
69714;SDS011;56981;53.532;49.398;2022-12-15T10:50:47;14.10;;;5.57;;
69714;SDS011;56981;53.532;49.398;2022-12-15T10:53:31;12.85;;;5.32;;
69714;SDS011;56981;53.532;49.398;2022-12-15T10:56:04;12.20;;;5.45;;
69714;SDS011;56981;53.532;49.398;2022-12-15T10:58:34;13.45;;;6.30;;
69714;SDS011;56981;53.532;49.398;2022-12-15T11:01:17;11.75;;;4.80;;
69714;SDS011;56981;53.532;49.398;2022-12-15T11:03:45;11.85;;;4.70;;
69714;SDS011;56981;53.532;49.398;2022-12-15T11:06:17;17.75;;;6.28;;
69714;SDS011;56981;53.532;49.398;2022-12-15T11:08:46;16.65;;;7.32;;
69714;SDS011;56981;53.532;49.398;2022-12-15T11:11:24;14.00;;;6.07;;
69714;SDS011;56981;53.532;49.398;2022-12-15T11:14:12;8.95;;;5.22;;
69714;SDS011;56981;53.532;49.398;2022-12-15T11:16:51;14.55;;;5.97;;
69714;SDS011;56981;53.532;49.398;2022-12-15T11:25:21;16.30;;;6.43;;
69714;SDS011;56981;53.532;49.398;2022-12-15T11:30:23;13.30;;;4.63;;
69714;SDS011;56981;53.532;49.398;2022-12-15T11:32:52;10.10;;;4.63;;
69714;SDS011;56981;53.532;49.398;2022-12-15T11:41:15;12.32;;;5.45;;
69714;SDS011;56981;53.532;49.398;2022-12-15T11:44:07;10.73;;;4.60;;
69714;SDS011;56981;53.532;49.398;2022-12-15T11:46:51;8.63;;;3.35;;
69714;SDS011;56981;53.532;49.398;2022-12-15T12:03:39;7.05;;;3.22;;
69714;SDS011;56981;53.532;49.398;2022-12-15T12:06:09;8.60;;;3.90;;
69714;SDS011;56981;53.532;49.398;2022-12-15T12:11:18;10.02;;;3.90;;
69714;SDS011;56981;53.532;49.398;2022-12-15T12:19:53;10.05;;;3.67;;
69714;SDS011;56981;53.532;49.398;2022-12-15T12:24:59;10.07;;;4.15;;
69714;SDS011;56981;53.532;49.398;2022-12-15T12:27:38;9.98;;;4.95;;
69714;SDS011;56981;53.532;49.398;2022-12-15T12:30:25;11.70;;;4.20;;
69714;SDS011;56981;53.532;49.398;2022-12-15T12:33:18;11.77;;;3.97;;
69714;SDS011;56981;53.532;49.398;2022-12-15T12:39:04;8.07;;;3.42;;
69714;SDS011;56981;53.532;49.398;2022-12-15T12:43:51;9.25;;;3.28;;
69714;SDS011;56981;53.532;49.398;2022-12-15T12:49:14;8.93;;;3.22;;
69714;SDS011;56981;53.532;49.398;2022-12-15T12:51:48;9.55;;;3.88;;
69714;SDS011;56981;53.532;49.398;2022-12-15T12:57:04;9.07;;;4.13;;
69714;SDS011;56981;53.532;49.398;2022-12-15T13:05:46;10.25;;;3.05;;
69714;SDS011;56981;53.532;49.398;2022-12-15T13:08:15;15.43;;;4.30;;
69714;SDS011;56981;53.532;49.398;2022-12-15T13:15:02;22.83;;;6.75;;
69714;SDS011;56981;53.532;49.398;2022-12-15T13:17:15;8.00;;;4.43;;
69714;SDS011;56981;53.532;49.398;2022-12-15T13:20:07;9.60;;;3.95;;
69714;SDS011;56981;53.532;49.398;2022-12-15T13:22:43;10.35;;;4.05;;
69714;SDS011;56981;53.532;49.398;2022-12-15T13:25:43;8.30;;;3.42;;
69714;SDS011;56981;53.532;49.398;2022-12-15T13:33:52;6.78;;;2.72;;
69714;SDS011;56981;53.532;49.398;2022-12-15T13:39:30;10.25;;;3.75;;
69714;SDS011;56981;53.532;49.398;2022-12-15T13:44:31;13.05;;;3.88;;
69714;SDS011;56981;53.532;49.398;2022-12-15T13:47:05;10.73;;;3.97;;
69714;SDS011;56981;53.532;49.398;2022-12-15T13:52:12;7.40;;;3.10;;
69714;SDS011;56981;53.532;49.398;2022-12-15T13:54:52;8.32;;;3.47;;
69714;SDS011;56981;53.532;49.398;2022-12-15T13:57:20;5.75;;;3.03;;
69714;SDS011;56981;53.532;49.398;2022-12-15T14:00:04;9.93;;;4.28;;
69714;SDS011;56981;53.532;49.398;2022-12-15T14:02:47;15.23;;;4.35;;
69714;SDS011;56981;53.532;49.398;2022-12-15T14:05:18;15.32;;;3.90;;
69714;SDS011;56981;53.532;49.398;2022-12-15T14:10:37;9.43;;;4.53;;
69714;SDS011;56981;53.532;49.398;2022-12-15T14:15:40;11.40;;;4.25;;
69714;SDS011;56981;53.532;49.398;2022-12-15T14:20:55;8.68;;;3.67;;
69714;SDS011;56981;53.532;49.398;2022-12-15T14:23:26;8.13;;;3.95;;
69714;SDS011;56981;53.532;49.398;2022-12-15T14:26:08;12.32;;;4.22;;
69714;SDS011;56981;53.532;49.398;2022-12-15T14:28:37;8.95;;;3.55;;
69714;SDS011;56981;53.532;49.398;2022-12-15T14:31:11;8.73;;;3.38;;
69714;SDS011;56981;53.532;49.398;2022-12-15T14:33:45;8.00;;;3.75;;
69714;SDS011;56981;53.532;49.398;2022-12-15T14:36:13;16.35;;;5.13;;
69714;SDS011;56981;53.532;49.398;2022-12-15T14:38:49;13.73;;;4.57;;
69714;SDS011;56981;53.532;49.398;2022-12-15T14:41:37;9.88;;;3.65;;
69714;SDS011;56981;53.532;49.398;2022-12-15T14:44:27;11.43;;;4.50;;
69714;SDS011;56981;53.532;49.398;2022-12-15T14:46:54;13.40;;;4.15;;
69714;SDS011;56981;53.532;49.398;2022-12-15T14:49:25;11.27;;;3.97;;
69714;SDS011;56981;53.532;49.398;2022-12-15T14:52:19;13.55;;;4.78;;
69714;SDS011;56981;53.532;49.398;2022-12-15T14:54:58;8.82;;;4.35;;
69714;SDS011;56981;53.532;49.398;2022-12-15T14:57:28;9.45;;;3.83;;
69714;SDS011;56981;53.532;49.398;2022-12-15T15:05:40;11.30;;;4.22;;
69714;SDS011;56981;53.532;49.398;2022-12-15T15:08:14;11.70;;;4.63;;
69714;SDS011;56981;53.532;49.398;2022-12-15T15:11:02;9.63;;;4.20;;
69714;SDS011;56981;53.532;49.398;2022-12-15T15:19:45;12.63;;;4.32;;
69714;SDS011;56981;53.532;49.398;2022-12-15T15:22:32;13.95;;;4.63;;
69714;SDS011;56981;53.532;49.398;2022-12-15T15:25:01;6.53;;;3.00;;
69714;SDS011;56981;53.532;49.398;2022-12-15T15:27:48;11.00;;;4.63;;
69714;SDS011;56981;53.532;49.398;2022-12-15T15:30:19;11.88;;;3.90;;
69714;SDS011;56981;53.532;49.398;2022-12-15T15:32:57;16.92;;;5.72;;
69714;SDS011;56981;53.532;49.398;2022-12-15T15:35:27;18.35;;;6.68;;
69714;SDS011;56981;53.532;49.398;2022-12-15T15:37:58;19.60;;;6.38;;
69714;SDS011;56981;53.532;49.398;2022-12-15T15:40:28;13.77;;;5.70;;
69714;SDS011;56981;53.532;49.398;2022-12-15T15:42:54;12.90;;;5.38;;
69714;SDS011;56981;53.532;49.398;2022-12-15T15:45:20;9.85;;;4.63;;
69714;SDS011;56981;53.532;49.398;2022-12-15T15:47:47;10.25;;;4.68;;
69714;SDS011;56981;53.532;49.398;2022-12-15T15:50:19;12.55;;;5.03;;
69714;SDS011;56981;53.532;49.398;2022-12-15T15:52:52;11.25;;;3.88;;
69714;SDS011;56981;53.532;49.398;2022-12-15T15:55:20;10.48;;;4.35;;
69714;SDS011;56981;53.532;49.398;2022-12-15T15:57:51;11.43;;;4.32;;
69714;SDS011;56981;53.532;49.398;2022-12-15T16:00:20;12.48;;;4.45;;
69714;SDS011;56981;53.532;49.398;2022-12-15T16:02:49;10.57;;;4.20;;
69714;SDS011;56981;53.532;49.398;2022-12-15T16:05:15;10.73;;;5.57;;
69714;SDS011;56981;53.532;49.398;2022-12-15T16:07:45;14.95;;;6.60;;
69714;SDS011;56981;53.532;49.398;2022-12-15T16:10:14;35.33;;;10.85;;
69714;SDS011;56981;53.532;49.398;2022-12-15T16:12:43;38.38;;;11.30;;
69714;SDS011;56981;53.532;49.398;2022-12-15T16:15:13;39.67;;;10.07;;
69714;SDS011;56981;53.532;49.398;2022-12-15T16:17:44;32.20;;;10.40;;
69714;SDS011;56981;53.532;49.398;2022-12-15T16:20:12;47.00;;;15.20;;
69714;SDS011;56981;53.532;49.398;2022-12-15T16:22:40;27.30;;;11.15;;
69714;SDS011;56981;53.532;49.398;2022-12-15T16:25:18;29.10;;;11.23;;
69714;SDS011;56981;53.532;49.398;2022-12-15T16:28:11;44.38;;;16.83;;
69714;SDS011;56981;53.532;49.398;2022-12-15T16:30:40;22.48;;;8.88;;
69714;SDS011;56981;53.532;49.398;2022-12-15T16:33:07;19.75;;;7.68;;
69714;SDS011;56981;53.532;49.398;2022-12-15T16:35:37;11.25;;;5.28;;
69714;SDS011;56981;53.532;49.398;2022-12-15T16:38:16;11.43;;;4.55;;
69714;SDS011;56981;53.532;49.398;2022-12-15T16:41:03;12.77;;;5.85;;
69714;SDS011;56981;53.532;49.398;2022-12-15T16:43:31;11.73;;;4.70;;
69714;SDS011;56981;53.532;49.398;2022-12-15T16:46:00;13.90;;;4.68;;
69714;SDS011;56981;53.532;49.398;2022-12-15T16:48:27;12.65;;;4.97;;
69714;SDS011;56981;53.532;49.398;2022-12-15T16:50:56;18.23;;;5.38;;
69714;SDS011;56981;53.532;49.398;2022-12-15T16:53:34;14.50;;;5.07;;
69714;SDS011;56981;53.532;49.398;2022-12-15T16:56:03;14.05;;;4.95;;
69714;SDS011;56981;53.532;49.398;2022-12-15T16:58:41;13.65;;;6.18;;
69714;SDS011;56981;53.532;49.398;2022-12-15T17:01:08;11.77;;;4.22;;
69714;SDS011;56981;53.532;49.398;2022-12-15T17:03:36;14.63;;;5.10;;
69714;SDS011;56981;53.532;49.398;2022-12-15T17:06:03;13.63;;;5.07;;
69714;SDS011;56981;53.532;49.398;2022-12-15T17:11:19;11.10;;;5.07;;
69714;SDS011;56981;53.532;49.398;2022-12-15T17:13:48;15.88;;;6.38;;
69714;SDS011;56981;53.532;49.398;2022-12-15T17:16:18;12.73;;;5.32;;
69714;SDS011;56981;53.532;49.398;2022-12-15T17:18:46;17.33;;;5.70;;
69714;SDS011;56981;53.532;49.398;2022-12-15T17:21:15;10.27;;;5.05;;
69714;SDS011;56981;53.532;49.398;2022-12-15T17:23:44;12.93;;;4.85;;
69714;SDS011;56981;53.532;49.398;2022-12-15T17:26:22;9.57;;;3.63;;
69714;SDS011;56981;53.532;49.398;2022-12-15T17:28:50;15.65;;;4.82;;
69714;SDS011;56981;53.532;49.398;2022-12-15T17:31:18;10.52;;;4.28;;
69714;SDS011;56981;53.532;49.398;2022-12-15T17:33:47;11.73;;;5.45;;